sensor_id;sensor_type;location;lat;lon;timestamp;P1;durP1;ratioP1;P2;durP2;ratioP2
36745;SDS011;22715;52.182;21.206;2022-07-05T00:06:52;5.85;;;5.32;;
36745;SDS011;22715;52.182;21.206;2022-07-05T00:15:21;6.90;;;5.43;;
36745;SDS011;22715;52.182;21.206;2022-07-05T00:17:47;6.43;;;5.90;;
36745;SDS011;22715;52.182;21.206;2022-07-05T00:20:12;7.45;;;6.75;;
36745;SDS011;22715;52.182;21.206;2022-07-05T00:22:37;8.00;;;7.20;;
36745;SDS011;22715;52.182;21.206;2022-07-05T00:25:03;7.15;;;6.50;;
36745;SDS011;22715;52.182;21.206;2022-07-05T00:38:32;8.13;;;7.32;;
36745;SDS011;22715;52.182;21.206;2022-07-05T00:40:57;7.63;;;6.80;;
36745;SDS011;22715;52.182;21.206;2022-07-05T00:48:48;8.32;;;7.53;;
36745;SDS011;22715;52.182;21.206;2022-07-05T00:51:24;10.68;;;8.40;;
36745;SDS011;22715;52.182;21.206;2022-07-05T00:56:54;9.45;;;7.28;;
36745;SDS011;22715;52.182;21.206;2022-07-05T00:59:20;7.47;;;6.78;;
36745;SDS011;22715;52.182;21.206;2022-07-05T01:01:48;8.85;;;7.93;;
36745;SDS011;22715;52.182;21.206;2022-07-05T01:12:34;7.05;;;6.38;;
36745;SDS011;22715;52.182;21.206;2022-07-05T01:17:27;7.55;;;6.85;;
36745;SDS011;22715;52.182;21.206;2022-07-05T01:19:53;9.25;;;7.93;;
36745;SDS011;22715;52.182;21.206;2022-07-05T01:22:19;11.70;;;8.82;;
36745;SDS011;22715;52.182;21.206;2022-07-05T01:24:45;8.52;;;7.70;;
36745;SDS011;22715;52.182;21.206;2022-07-05T01:27:10;9.77;;;8.77;;
36745;SDS011;22715;52.182;21.206;2022-07-05T01:29:36;9.52;;;8.55;;
36745;SDS011;22715;52.182;21.206;2022-07-05T01:32:04;8.68;;;7.85;;
36745;SDS011;22715;52.182;21.206;2022-07-05T01:34:36;10.25;;;8.05;;
36745;SDS011;22715;52.182;21.206;2022-07-05T01:37:03;11.05;;;8.65;;
36745;SDS011;22715;52.182;21.206;2022-07-05T01:39:29;10.90;;;8.77;;
36745;SDS011;22715;52.182;21.206;2022-07-05T01:41:58;12.65;;;9.13;;
36745;SDS011;22715;52.182;21.206;2022-07-05T01:44:23;9.85;;;8.93;;
36745;SDS011;22715;52.182;21.206;2022-07-05T01:46:51;9.98;;;8.35;;
36745;SDS011;22715;52.182;21.206;2022-07-05T01:49:19;10.95;;;8.43;;
36745;SDS011;22715;52.182;21.206;2022-07-05T01:51:49;9.70;;;8.70;;
36745;SDS011;22715;52.182;21.206;2022-07-05T01:56:40;8.63;;;7.80;;
36745;SDS011;22715;52.182;21.206;2022-07-05T01:59:08;9.60;;;8.70;;
36745;SDS011;22715;52.182;21.206;2022-07-05T02:01:35;10.98;;;8.55;;
36745;SDS011;22715;52.182;21.206;2022-07-05T02:04:01;8.05;;;7.25;;
36745;SDS011;22715;52.182;21.206;2022-07-05T02:06:26;8.57;;;7.55;;
36745;SDS011;22715;52.182;21.206;2022-07-05T02:08:52;9.27;;;8.38;;
36745;SDS011;22715;52.182;21.206;2022-07-05T02:11:18;9.35;;;7.32;;
36745;SDS011;22715;52.182;21.206;2022-07-05T02:13:43;10.10;;;8.18;;
36745;SDS011;22715;52.182;21.206;2022-07-05T02:16:08;8.00;;;7.30;;
36745;SDS011;22715;52.182;21.206;2022-07-05T02:18:34;10.75;;;8.05;;
36745;SDS011;22715;52.182;21.206;2022-07-05T02:20:59;7.30;;;6.47;;
36745;SDS011;22715;52.182;21.206;2022-07-05T02:26:09;8.95;;;7.55;;
36745;SDS011;22715;52.182;21.206;2022-07-05T02:28:34;10.38;;;7.25;;
36745;SDS011;22715;52.182;21.206;2022-07-05T02:31:05;8.45;;;7.28;;
36745;SDS011;22715;52.182;21.206;2022-07-05T02:35:55;8.02;;;6.72;;
36745;SDS011;22715;52.182;21.206;2022-07-05T02:38:25;10.88;;;7.00;;
36745;SDS011;22715;52.182;21.206;2022-07-05T02:40:50;7.00;;;6.30;;
36745;SDS011;22715;52.182;21.206;2022-07-05T02:43:16;7.65;;;6.95;;
36745;SDS011;22715;52.182;21.206;2022-07-05T02:45:44;7.60;;;6.80;;
36745;SDS011;22715;52.182;21.206;2022-07-05T02:48:10;9.40;;;7.20;;
36745;SDS011;22715;52.182;21.206;2022-07-05T02:50:35;6.80;;;6.28;;
36745;SDS011;22715;52.182;21.206;2022-07-05T02:53:04;6.32;;;5.72;;
36745;SDS011;22715;52.182;21.206;2022-07-05T02:55:32;8.05;;;6.22;;
36745;SDS011;22715;52.182;21.206;2022-07-05T02:57:58;10.98;;;6.90;;
36745;SDS011;22715;52.182;21.206;2022-07-05T03:00:23;6.75;;;6.15;;
36745;SDS011;22715;52.182;21.206;2022-07-05T03:05:19;6.95;;;5.68;;
36745;SDS011;22715;52.182;21.206;2022-07-05T03:07:44;7.32;;;6.25;;
36745;SDS011;22715;52.182;21.206;2022-07-05T03:10:10;6.90;;;6.20;;
36745;SDS011;22715;52.182;21.206;2022-07-05T03:15:09;7.85;;;7.25;;
36745;SDS011;22715;52.182;21.206;2022-07-05T03:17:35;6.72;;;6.05;;
36745;SDS011;22715;52.182;21.206;2022-07-05T03:20:15;6.97;;;5.68;;
36745;SDS011;22715;52.182;21.206;2022-07-05T03:22:41;8.15;;;6.07;;
36745;SDS011;22715;52.182;21.206;2022-07-05T03:25:06;5.63;;;5.10;;
36745;SDS011;22715;52.182;21.206;2022-07-05T03:27:38;6.47;;;5.78;;
36745;SDS011;22715;52.182;21.206;2022-07-05T03:30:14;7.07;;;6.28;;
36745;SDS011;22715;52.182;21.206;2022-07-05T03:32:52;5.38;;;4.88;;
36745;SDS011;22715;52.182;21.206;2022-07-05T03:35:19;6.43;;;5.70;;
36745;SDS011;22715;52.182;21.206;2022-07-05T03:37:44;6.28;;;5.68;;
36745;SDS011;22715;52.182;21.206;2022-07-05T03:40:13;6.00;;;5.40;;
36745;SDS011;22715;52.182;21.206;2022-07-05T03:42:49;5.95;;;5.35;;
36745;SDS011;22715;52.182;21.206;2022-07-05T03:45:22;6.18;;;5.57;;
36745;SDS011;22715;52.182;21.206;2022-07-05T03:47:47;6.60;;;5.68;;
36745;SDS011;22715;52.182;21.206;2022-07-05T03:50:16;6.60;;;6.00;;
36745;SDS011;22715;52.182;21.206;2022-07-05T03:52:41;6.53;;;5.88;;
36745;SDS011;22715;52.182;21.206;2022-07-05T03:55:07;5.65;;;4.80;;
36745;SDS011;22715;52.182;21.206;2022-07-05T03:57:32;6.00;;;5.40;;
36745;SDS011;22715;52.182;21.206;2022-07-05T04:00:04;6.00;;;5.45;;
36745;SDS011;22715;52.182;21.206;2022-07-05T04:02:31;5.93;;;5.03;;
36745;SDS011;22715;52.182;21.206;2022-07-05T04:04:57;6.13;;;5.07;;
36745;SDS011;22715;52.182;21.206;2022-07-05T04:07:28;6.05;;;5.45;;
36745;SDS011;22715;52.182;21.206;2022-07-05T04:15:23;5.25;;;4.85;;
36745;SDS011;22715;52.182;21.206;2022-07-05T04:20:20;5.00;;;4.60;;
36745;SDS011;22715;52.182;21.206;2022-07-05T04:22:57;5.13;;;4.72;;
36745;SDS011;22715;52.182;21.206;2022-07-05T04:25:22;6.55;;;4.85;;
36745;SDS011;22715;52.182;21.206;2022-07-05T04:27:52;5.65;;;4.95;;
36745;SDS011;22715;52.182;21.206;2022-07-05T04:30:27;4.95;;;4.50;;
36745;SDS011;22715;52.182;21.206;2022-07-05T04:32:53;6.63;;;5.65;;
36745;SDS011;22715;52.182;21.206;2022-07-05T04:35:18;5.40;;;4.90;;
36745;SDS011;22715;52.182;21.206;2022-07-05T04:37:49;4.80;;;4.38;;
36745;SDS011;22715;52.182;21.206;2022-07-05T04:42:53;5.20;;;4.70;;
36745;SDS011;22715;52.182;21.206;2022-07-05T04:45:19;5.80;;;5.30;;
36745;SDS011;22715;52.182;21.206;2022-07-05T04:47:44;5.10;;;4.63;;
36745;SDS011;22715;52.182;21.206;2022-07-05T04:55:58;5.32;;;4.93;;
36745;SDS011;22715;52.182;21.206;2022-07-05T04:58:31;6.75;;;5.00;;
36745;SDS011;22715;52.182;21.206;2022-07-05T05:03:59;5.13;;;4.63;;
36745;SDS011;22715;52.182;21.206;2022-07-05T05:06:25;4.95;;;4.45;;
36745;SDS011;22715;52.182;21.206;2022-07-05T05:08:51;7.93;;;4.65;;
36745;SDS011;22715;52.182;21.206;2022-07-05T05:11:16;6.22;;;4.78;;
36745;SDS011;22715;52.182;21.206;2022-07-05T05:13:42;5.15;;;4.65;;
36745;SDS011;22715;52.182;21.206;2022-07-05T05:16:10;5.90;;;5.32;;
36745;SDS011;22715;52.182;21.206;2022-07-05T05:18:36;5.28;;;4.80;;
36745;SDS011;22715;52.182;21.206;2022-07-05T05:21:01;5.47;;;4.97;;
36745;SDS011;22715;52.182;21.206;2022-07-05T05:23:27;4.78;;;4.38;;
36745;SDS011;22715;52.182;21.206;2022-07-05T05:25:54;5.45;;;4.90;;
36745;SDS011;22715;52.182;21.206;2022-07-05T05:28:20;4.85;;;4.35;;
36745;SDS011;22715;52.182;21.206;2022-07-05T05:30:45;5.22;;;4.82;;
36745;SDS011;22715;52.182;21.206;2022-07-05T05:33:11;5.38;;;4.45;;
36745;SDS011;22715;52.182;21.206;2022-07-05T05:38:25;6.20;;;4.78;;
36745;SDS011;22715;52.182;21.206;2022-07-05T05:40:50;5.50;;;4.47;;
36745;SDS011;22715;52.182;21.206;2022-07-05T05:43:20;4.93;;;4.47;;
36745;SDS011;22715;52.182;21.206;2022-07-05T05:46:00;5.53;;;4.95;;
36745;SDS011;22715;52.182;21.206;2022-07-05T05:48:33;5.57;;;5.00;;
36745;SDS011;22715;52.182;21.206;2022-07-05T05:50:58;6.45;;;4.82;;
36745;SDS011;22715;52.182;21.206;2022-07-05T05:53:30;5.20;;;4.78;;
36745;SDS011;22715;52.182;21.206;2022-07-05T05:55:58;5.80;;;4.65;;
36745;SDS011;22715;52.182;21.206;2022-07-05T05:58:31;4.75;;;4.35;;
36745;SDS011;22715;52.182;21.206;2022-07-05T06:00:57;4.30;;;3.90;;
36745;SDS011;22715;52.182;21.206;2022-07-05T06:05:59;4.63;;;4.22;;
36745;SDS011;22715;52.182;21.206;2022-07-05T06:08:41;4.97;;;4.28;;
36745;SDS011;22715;52.182;21.206;2022-07-05T06:11:19;4.97;;;4.57;;
36745;SDS011;22715;52.182;21.206;2022-07-05T06:13:50;5.57;;;5.07;;
36745;SDS011;22715;52.182;21.206;2022-07-05T06:19:00;4.30;;;3.95;;
36745;SDS011;22715;52.182;21.206;2022-07-05T06:27:14;4.90;;;4.40;;
36745;SDS011;22715;52.182;21.206;2022-07-05T06:29:42;5.50;;;3.95;;
36745;SDS011;22715;52.182;21.206;2022-07-05T06:32:07;5.25;;;3.88;;
36745;SDS011;22715;52.182;21.206;2022-07-05T06:34:36;4.20;;;3.65;;
36745;SDS011;22715;52.182;21.206;2022-07-05T06:37:09;3.63;;;3.33;;
36745;SDS011;22715;52.182;21.206;2022-07-05T06:39:37;4.43;;;4.07;;
36745;SDS011;22715;52.182;21.206;2022-07-05T06:42:06;6.40;;;4.15;;
36745;SDS011;22715;52.182;21.206;2022-07-05T06:44:38;5.38;;;3.85;;
36745;SDS011;22715;52.182;21.206;2022-07-05T06:47:03;4.60;;;4.20;;
36745;SDS011;22715;52.182;21.206;2022-07-05T06:49:33;5.03;;;4.63;;
36745;SDS011;22715;52.182;21.206;2022-07-05T06:52:00;7.90;;;4.78;;
36745;SDS011;22715;52.182;21.206;2022-07-05T06:54:37;4.32;;;3.83;;
36745;SDS011;22715;52.182;21.206;2022-07-05T06:57:22;5.05;;;4.57;;
36745;SDS011;22715;52.182;21.206;2022-07-05T06:59:50;4.55;;;4.13;;
36745;SDS011;22715;52.182;21.206;2022-07-05T07:02:15;4.22;;;3.90;;
36745;SDS011;22715;52.182;21.206;2022-07-05T07:04:42;4.65;;;3.83;;
36745;SDS011;22715;52.182;21.206;2022-07-05T07:10:23;4.20;;;3.67;;
36745;SDS011;22715;52.182;21.206;2022-07-05T07:12:48;5.10;;;4.10;;
36745;SDS011;22715;52.182;21.206;2022-07-05T07:15:14;5.80;;;4.78;;
36745;SDS011;22715;52.182;21.206;2022-07-05T07:17:42;4.40;;;3.63;;
36745;SDS011;22715;52.182;21.206;2022-07-05T07:25:24;4.75;;;4.32;;
36745;SDS011;22715;52.182;21.206;2022-07-05T07:27:51;3.28;;;2.70;;
36745;SDS011;22715;52.182;21.206;2022-07-05T07:30:46;10.07;;;5.50;;
36745;SDS011;22715;52.182;21.206;2022-07-05T07:36:34;4.60;;;4.20;;
36745;SDS011;22715;52.182;21.206;2022-07-05T07:38:59;5.22;;;3.55;;
36745;SDS011;22715;52.182;21.206;2022-07-05T07:44:09;3.78;;;3.42;;
36745;SDS011;22715;52.182;21.206;2022-07-05T07:46:35;3.63;;;3.35;;
36745;SDS011;22715;52.182;21.206;2022-07-05T07:49:01;4.63;;;4.05;;
36745;SDS011;22715;52.182;21.206;2022-07-05T07:51:26;4.03;;;3.72;;
36745;SDS011;22715;52.182;21.206;2022-07-05T07:53:52;4.07;;;3.75;;
36745;SDS011;22715;52.182;21.206;2022-07-05T07:56:17;4.03;;;3.50;;
36745;SDS011;22715;52.182;21.206;2022-07-05T07:58:55;3.83;;;3.33;;
36745;SDS011;22715;52.182;21.206;2022-07-05T08:01:24;4.35;;;3.25;;
36745;SDS011;22715;52.182;21.206;2022-07-05T08:03:57;3.25;;;3.05;;
36745;SDS011;22715;52.182;21.206;2022-07-05T08:06:23;3.97;;;3.60;;
36745;SDS011;22715;52.182;21.206;2022-07-05T08:08:48;3.75;;;3.42;;
36745;SDS011;22715;52.182;21.206;2022-07-05T08:11:14;3.22;;;2.92;;
36745;SDS011;22715;52.182;21.206;2022-07-05T08:13:39;3.42;;;3.13;;
36745;SDS011;22715;52.182;21.206;2022-07-05T08:16:06;5.93;;;4.40;;
36745;SDS011;22715;52.182;21.206;2022-07-05T08:21:36;3.65;;;3.35;;
36745;SDS011;22715;52.182;21.206;2022-07-05T08:24:08;3.72;;;3.05;;
36745;SDS011;22715;52.182;21.206;2022-07-05T08:26:34;6.72;;;3.55;;
36745;SDS011;22715;52.182;21.206;2022-07-05T08:29:00;3.20;;;2.90;;
36745;SDS011;22715;52.182;21.206;2022-07-05T08:31:29;4.55;;;3.42;;
36745;SDS011;22715;52.182;21.206;2022-07-05T08:33:58;3.08;;;2.88;;
36745;SDS011;22715;52.182;21.206;2022-07-05T08:36:23;4.13;;;2.88;;
36745;SDS011;22715;52.182;21.206;2022-07-05T08:38:50;4.45;;;3.15;;
36745;SDS011;22715;52.182;21.206;2022-07-05T08:41:17;4.53;;;3.85;;
36745;SDS011;22715;52.182;21.206;2022-07-05T08:43:42;5.32;;;3.08;;
36745;SDS011;22715;52.182;21.206;2022-07-05T08:46:09;3.10;;;2.80;;
36745;SDS011;22715;52.182;21.206;2022-07-05T08:48:36;3.38;;;3.05;;
36745;SDS011;22715;52.182;21.206;2022-07-05T08:51:08;3.58;;;3.28;;
36745;SDS011;22715;52.182;21.206;2022-07-05T08:53:33;3.22;;;2.92;;
36745;SDS011;22715;52.182;21.206;2022-07-05T08:56:05;3.30;;;3.00;;
36745;SDS011;22715;52.182;21.206;2022-07-05T08:58:32;4.25;;;3.15;;
36745;SDS011;22715;52.182;21.206;2022-07-05T09:00:57;4.05;;;3.63;;
36745;SDS011;22715;52.182;21.206;2022-07-05T09:03:23;3.35;;;2.70;;
36745;SDS011;22715;52.182;21.206;2022-07-05T09:05:54;3.40;;;3.10;;
36745;SDS011;22715;52.182;21.206;2022-07-05T09:08:21;3.50;;;3.10;;
36745;SDS011;22715;52.182;21.206;2022-07-05T09:10:46;5.13;;;3.83;;
36745;SDS011;22715;52.182;21.206;2022-07-05T09:13:14;3.20;;;2.95;;
36745;SDS011;22715;52.182;21.206;2022-07-05T09:15:40;2.90;;;2.70;;
36745;SDS011;22715;52.182;21.206;2022-07-05T09:18:10;3.28;;;3.00;;
36745;SDS011;22715;52.182;21.206;2022-07-05T09:20:36;3.50;;;3.20;;
36745;SDS011;22715;52.182;21.206;2022-07-05T09:23:01;3.17;;;2.92;;
36745;SDS011;22715;52.182;21.206;2022-07-05T09:25:28;3.72;;;2.40;;
36745;SDS011;22715;52.182;21.206;2022-07-05T09:27:59;5.00;;;2.95;;
36745;SDS011;22715;52.182;21.206;2022-07-05T09:30:29;4.30;;;3.40;;
36745;SDS011;22715;52.182;21.206;2022-07-05T09:33:02;3.25;;;3.00;;
36745;SDS011;22715;52.182;21.206;2022-07-05T09:37:55;3.47;;;2.55;;
36745;SDS011;22715;52.182;21.206;2022-07-05T09:40:21;3.08;;;2.80;;
36745;SDS011;22715;52.182;21.206;2022-07-05T09:45:57;3.38;;;3.10;;
36745;SDS011;22715;52.182;21.206;2022-07-05T09:48:22;3.58;;;3.20;;
36745;SDS011;22715;52.182;21.206;2022-07-05T09:50:48;3.75;;;3.45;;
36745;SDS011;22715;52.182;21.206;2022-07-05T09:53:17;3.60;;;3.30;;
36745;SDS011;22715;52.182;21.206;2022-07-05T09:58:48;3.23;;;2.97;;
36745;SDS011;22715;52.182;21.206;2022-07-05T10:01:22;3.03;;;2.83;;
36745;SDS011;22715;52.182;21.206;2022-07-05T10:03:51;4.07;;;3.53;;
36745;SDS011;22715;52.182;21.206;2022-07-05T10:06:18;5.25;;;3.03;;
36745;SDS011;22715;52.182;21.206;2022-07-05T10:08:43;3.28;;;2.95;;
36745;SDS011;22715;52.182;21.206;2022-07-05T10:13:57;6.85;;;3.90;;
36745;SDS011;22715;52.182;21.206;2022-07-05T10:16:23;4.18;;;2.60;;
36745;SDS011;22715;52.182;21.206;2022-07-05T10:18:53;3.55;;;3.25;;
36745;SDS011;22715;52.182;21.206;2022-07-05T10:21:21;4.22;;;2.70;;
36745;SDS011;22715;52.182;21.206;2022-07-05T10:23:47;9.10;;;2.85;;
36745;SDS011;22715;52.182;21.206;2022-07-05T10:26:16;3.67;;;2.85;;
36745;SDS011;22715;52.182;21.206;2022-07-05T10:28:49;3.47;;;2.78;;
36745;SDS011;22715;52.182;21.206;2022-07-05T10:31:15;3.60;;;2.78;;
36745;SDS011;22715;52.182;21.206;2022-07-05T10:33:40;4.32;;;2.75;;
36745;SDS011;22715;52.182;21.206;2022-07-05T10:36:06;3.83;;;2.47;;
36745;SDS011;22715;52.182;21.206;2022-07-05T10:41:31;2.50;;;2.30;;
36745;SDS011;22715;52.182;21.206;2022-07-05T10:44:01;6.43;;;3.10;;
36745;SDS011;22715;52.182;21.206;2022-07-05T10:46:36;22.98;;;3.83;;
36745;SDS011;22715;52.182;21.206;2022-07-05T10:49:09;5.63;;;2.60;;
36745;SDS011;22715;52.182;21.206;2022-07-05T10:51:35;3.33;;;2.40;;
36745;SDS011;22715;52.182;21.206;2022-07-05T10:54:10;5.68;;;2.10;;
36745;SDS011;22715;52.182;21.206;2022-07-05T10:59:11;2.50;;;2.30;;
36745;SDS011;22715;52.182;21.206;2022-07-05T11:01:38;2.75;;;2.55;;
36745;SDS011;22715;52.182;21.206;2022-07-05T11:17:12;4.75;;;2.53;;
36745;SDS011;22715;52.182;21.206;2022-07-05T11:19:59;6.80;;;4.40;;
36745;SDS011;22715;52.182;21.206;2022-07-05T11:22:25;4.28;;;2.75;;
36745;SDS011;22715;52.182;21.206;2022-07-05T11:24:50;8.75;;;4.45;;
36745;SDS011;22715;52.182;21.206;2022-07-05T11:27:28;5.15;;;2.70;;
36745;SDS011;22715;52.182;21.206;2022-07-05T11:29:55;4.15;;;2.80;;
36745;SDS011;22715;52.182;21.206;2022-07-05T11:35:15;6.70;;;2.72;;
36745;SDS011;22715;52.182;21.206;2022-07-05T11:37:57;2.92;;;2.17;;
36745;SDS011;22715;52.182;21.206;2022-07-05T11:42:59;3.67;;;2.80;;
36745;SDS011;22715;52.182;21.206;2022-07-05T11:48:06;2.63;;;2.42;;
36745;SDS011;22715;52.182;21.206;2022-07-05T11:53:29;3.08;;;2.70;;
36745;SDS011;22715;52.182;21.206;2022-07-05T11:55:58;3.78;;;3.08;;
36745;SDS011;22715;52.182;21.206;2022-07-05T11:58:31;2.67;;;2.30;;
36745;SDS011;22715;52.182;21.206;2022-07-05T12:01:01;2.58;;;2.35;;
36745;SDS011;22715;52.182;21.206;2022-07-05T12:03:27;4.32;;;2.80;;
36745;SDS011;22715;52.182;21.206;2022-07-05T12:05:52;4.00;;;2.60;;
36745;SDS011;22715;52.182;21.206;2022-07-05T12:08:23;3.83;;;2.55;;
36745;SDS011;22715;52.182;21.206;2022-07-05T12:11:03;3.80;;;2.58;;
36745;SDS011;22715;52.182;21.206;2022-07-05T12:13:53;1.90;;;1.80;;
36745;SDS011;22715;52.182;21.206;2022-07-05T12:16:19;3.03;;;2.67;;
36745;SDS011;22715;52.182;21.206;2022-07-05T12:18:54;2.97;;;2.50;;
36745;SDS011;22715;52.182;21.206;2022-07-05T12:21:26;2.45;;;2.13;;
36745;SDS011;22715;52.182;21.206;2022-07-05T12:23:51;2.70;;;2.33;;
36745;SDS011;22715;52.182;21.206;2022-07-05T12:26:17;6.38;;;2.25;;
36745;SDS011;22715;52.182;21.206;2022-07-05T12:28:46;2.60;;;2.40;;
36745;SDS011;22715;52.182;21.206;2022-07-05T12:31:19;4.40;;;2.53;;
36745;SDS011;22715;52.182;21.206;2022-07-05T12:33:46;2.50;;;2.30;;
36745;SDS011;22715;52.182;21.206;2022-07-05T12:36:15;4.18;;;3.10;;
36745;SDS011;22715;52.182;21.206;2022-07-05T12:38:41;4.30;;;2.42;;
36745;SDS011;22715;52.182;21.206;2022-07-05T12:41:20;3.05;;;1.90;;
36745;SDS011;22715;52.182;21.206;2022-07-05T12:43:49;3.67;;;2.20;;
36745;SDS011;22715;52.182;21.206;2022-07-05T12:46:15;3.78;;;2.35;;
36745;SDS011;22715;52.182;21.206;2022-07-05T12:48:43;2.25;;;2.05;;
36745;SDS011;22715;52.182;21.206;2022-07-05T12:51:09;3.50;;;2.40;;
36745;SDS011;22715;52.182;21.206;2022-07-05T12:53:35;2.47;;;1.90;;
36745;SDS011;22715;52.182;21.206;2022-07-05T12:56:27;3.45;;;2.13;;
36745;SDS011;22715;52.182;21.206;2022-07-05T12:59:17;5.78;;;2.38;;
36745;SDS011;22715;52.182;21.206;2022-07-05T13:01:43;2.13;;;1.90;;
36745;SDS011;22715;52.182;21.206;2022-07-05T13:04:18;3.35;;;2.75;;
36745;SDS011;22715;52.182;21.206;2022-07-05T13:06:48;3.45;;;3.00;;
36745;SDS011;22715;52.182;21.206;2022-07-05T13:09:16;7.57;;;3.75;;
36745;SDS011;22715;52.182;21.206;2022-07-05T13:14:34;2.22;;;2.03;;
36745;SDS011;22715;52.182;21.206;2022-07-05T13:16:59;4.07;;;1.77;;
36745;SDS011;22715;52.182;21.206;2022-07-05T13:19:28;3.17;;;2.20;;
36745;SDS011;22715;52.182;21.206;2022-07-05T13:21:54;4.65;;;3.20;;
36745;SDS011;22715;52.182;21.206;2022-07-05T13:26:49;4.03;;;2.13;;
36745;SDS011;22715;52.182;21.206;2022-07-05T13:29:14;2.30;;;2.10;;
36745;SDS011;22715;52.182;21.206;2022-07-05T13:31:40;3.63;;;2.38;;
36745;SDS011;22715;52.182;21.206;2022-07-05T13:37:13;2.90;;;2.30;;
36745;SDS011;22715;52.182;21.206;2022-07-05T13:39:39;2.67;;;2.40;;
36745;SDS011;22715;52.182;21.206;2022-07-05T13:42:05;2.28;;;2.08;;
36745;SDS011;22715;52.182;21.206;2022-07-05T13:44:33;1.88;;;1.73;;
36745;SDS011;22715;52.182;21.206;2022-07-05T13:46:59;2.47;;;2.28;;
36745;SDS011;22715;52.182;21.206;2022-07-05T13:49:25;4.05;;;2.40;;
36745;SDS011;22715;52.182;21.206;2022-07-05T13:51:52;4.97;;;2.55;;
36745;SDS011;22715;52.182;21.206;2022-07-05T13:54:20;3.08;;;2.75;;
36745;SDS011;22715;52.182;21.206;2022-07-05T13:56:45;2.50;;;2.30;;
36745;SDS011;22715;52.182;21.206;2022-07-05T13:59:11;4.10;;;3.20;;
36745;SDS011;22715;52.182;21.206;2022-07-05T14:04:17;4.78;;;4.35;;
36745;SDS011;22715;52.182;21.206;2022-07-05T14:06:54;7.07;;;5.75;;
36745;SDS011;22715;52.182;21.206;2022-07-05T14:09:20;6.13;;;5.15;;
36745;SDS011;22715;52.182;21.206;2022-07-05T14:11:45;9.52;;;6.03;;
36745;SDS011;22715;52.182;21.206;2022-07-05T14:14:11;5.20;;;4.75;;
36745;SDS011;22715;52.182;21.206;2022-07-05T14:16:38;9.60;;;5.70;;
36745;SDS011;22715;52.182;21.206;2022-07-05T14:19:03;6.35;;;5.85;;
36745;SDS011;22715;52.182;21.206;2022-07-05T14:21:28;6.30;;;5.72;;
36745;SDS011;22715;52.182;21.206;2022-07-05T14:23:54;9.30;;;8.35;;
36745;SDS011;22715;52.182;21.206;2022-07-05T14:26:19;10.18;;;7.13;;
36745;SDS011;22715;52.182;21.206;2022-07-05T14:28:44;8.02;;;7.28;;
36745;SDS011;22715;52.182;21.206;2022-07-05T14:31:10;14.13;;;8.55;;
36745;SDS011;22715;52.182;21.206;2022-07-05T14:33:35;12.18;;;9.50;;
36745;SDS011;22715;52.182;21.206;2022-07-05T14:42:11;10.35;;;9.23;;
36745;SDS011;22715;52.182;21.206;2022-07-05T14:44:37;12.55;;;10.32;;
36745;SDS011;22715;52.182;21.206;2022-07-05T14:47:02;9.88;;;8.88;;
36745;SDS011;22715;52.182;21.206;2022-07-05T14:49:28;12.30;;;9.63;;
36745;SDS011;22715;52.182;21.206;2022-07-05T14:51:53;10.70;;;9.40;;
36745;SDS011;22715;52.182;21.206;2022-07-05T14:54:19;12.30;;;9.75;;
36745;SDS011;22715;52.182;21.206;2022-07-05T14:56:44;12.02;;;10.82;;
36745;SDS011;22715;52.182;21.206;2022-07-05T14:59:10;12.30;;;10.00;;
36745;SDS011;22715;52.182;21.206;2022-07-05T15:01:35;12.25;;;10.15;;
36745;SDS011;22715;52.182;21.206;2022-07-05T15:04:00;11.25;;;8.20;;
36745;SDS011;22715;52.182;21.206;2022-07-05T15:06:26;10.98;;;6.88;;
36745;SDS011;22715;52.182;21.206;2022-07-05T15:08:51;6.82;;;6.15;;
36745;SDS011;22715;52.182;21.206;2022-07-05T15:11:18;9.40;;;6.82;;
36745;SDS011;22715;52.182;21.206;2022-07-05T15:13:44;8.35;;;7.55;;
36745;SDS011;22715;52.182;21.206;2022-07-05T15:16:09;7.45;;;5.65;;
36745;SDS011;22715;52.182;21.206;2022-07-05T15:18:35;8.43;;;7.53;;
36745;SDS011;22715;52.182;21.206;2022-07-05T15:21:00;7.57;;;6.88;;
36745;SDS011;22715;52.182;21.206;2022-07-05T15:23:28;8.25;;;7.45;;
36745;SDS011;22715;52.182;21.206;2022-07-05T15:25:53;9.73;;;7.70;;
36745;SDS011;22715;52.182;21.206;2022-07-05T15:28:28;10.13;;;7.90;;
36745;SDS011;22715;52.182;21.206;2022-07-05T15:30:53;8.77;;;7.10;;
36745;SDS011;22715;52.182;21.206;2022-07-05T15:33:21;7.90;;;7.20;;
36745;SDS011;22715;52.182;21.206;2022-07-05T15:35:52;8.88;;;7.97;;
36745;SDS011;22715;52.182;21.206;2022-07-05T15:38:22;10.32;;;9.27;;
36745;SDS011;22715;52.182;21.206;2022-07-05T15:40:47;7.97;;;7.13;;
36745;SDS011;22715;52.182;21.206;2022-07-05T15:43:13;9.40;;;6.97;;
36745;SDS011;22715;52.182;21.206;2022-07-05T15:45:38;7.57;;;6.88;;
36745;SDS011;22715;52.182;21.206;2022-07-05T15:48:03;6.20;;;5.60;;
36745;SDS011;22715;52.182;21.206;2022-07-05T15:50:29;7.53;;;6.45;;
36745;SDS011;22715;52.182;21.206;2022-07-05T15:52:54;6.25;;;5.47;;
36745;SDS011;22715;52.182;21.206;2022-07-05T15:55:20;5.63;;;5.13;;
36745;SDS011;22715;52.182;21.206;2022-07-05T15:57:45;6.07;;;4.57;;
36745;SDS011;22715;52.182;21.206;2022-07-05T16:02:58;5.93;;;5.35;;
36745;SDS011;22715;52.182;21.206;2022-07-05T16:05:24;9.55;;;5.50;;
36745;SDS011;22715;52.182;21.206;2022-07-05T16:07:49;8.20;;;5.60;;
36745;SDS011;22715;52.182;21.206;2022-07-05T16:10:15;6.20;;;5.05;;
36745;SDS011;22715;52.182;21.206;2022-07-05T16:12:43;5.75;;;5.22;;
36745;SDS011;22715;52.182;21.206;2022-07-05T16:15:09;6.05;;;5.40;;
36745;SDS011;22715;52.182;21.206;2022-07-05T16:17:58;5.30;;;4.90;;
36745;SDS011;22715;52.182;21.206;2022-07-05T16:20:23;4.63;;;4.15;;
36745;SDS011;22715;52.182;21.206;2022-07-05T16:22:48;3.80;;;3.50;;
36745;SDS011;22715;52.182;21.206;2022-07-05T16:25:17;4.25;;;3.70;;
36745;SDS011;22715;52.182;21.206;2022-07-05T16:27:45;3.65;;;3.35;;
36745;SDS011;22715;52.182;21.206;2022-07-05T16:30:10;7.32;;;3.13;;
36745;SDS011;22715;52.182;21.206;2022-07-05T16:32:36;3.45;;;3.13;;
36745;SDS011;22715;52.182;21.206;2022-07-05T16:35:01;4.60;;;2.83;;
36745;SDS011;22715;52.182;21.206;2022-07-05T16:37:27;4.05;;;2.67;;
36745;SDS011;22715;52.182;21.206;2022-07-05T16:39:52;3.15;;;2.63;;
36745;SDS011;22715;52.182;21.206;2022-07-05T16:42:17;6.28;;;4.15;;
36745;SDS011;22715;52.182;21.206;2022-07-05T16:44:43;2.30;;;2.10;;
36745;SDS011;22715;52.182;21.206;2022-07-05T16:47:08;3.92;;;2.63;;
36745;SDS011;22715;52.182;21.206;2022-07-05T16:49:33;2.60;;;2.33;;
36745;SDS011;22715;52.182;21.206;2022-07-05T16:51:59;3.55;;;3.03;;
36745;SDS011;22715;52.182;21.206;2022-07-05T16:54:24;2.92;;;2.60;;
36745;SDS011;22715;52.182;21.206;2022-07-05T16:56:52;2.80;;;2.40;;
36745;SDS011;22715;52.182;21.206;2022-07-05T16:59:19;3.95;;;2.75;;
36745;SDS011;22715;52.182;21.206;2022-07-05T17:01:44;2.42;;;2.20;;
36745;SDS011;22715;52.182;21.206;2022-07-05T17:04:09;2.85;;;2.33;;
36745;SDS011;22715;52.182;21.206;2022-07-05T17:06:35;2.95;;;2.60;;
36745;SDS011;22715;52.182;21.206;2022-07-05T17:09:00;7.95;;;2.53;;
36745;SDS011;22715;52.182;21.206;2022-07-05T17:11:27;2.97;;;2.78;;
36745;SDS011;22715;52.182;21.206;2022-07-05T17:13:54;3.28;;;3.00;;
36745;SDS011;22715;52.182;21.206;2022-07-05T17:16:21;2.65;;;2.45;;
36745;SDS011;22715;52.182;21.206;2022-07-05T17:18:46;5.20;;;2.63;;
36745;SDS011;22715;52.182;21.206;2022-07-05T17:21:12;3.30;;;3.00;;
36745;SDS011;22715;52.182;21.206;2022-07-05T17:23:41;3.45;;;3.15;;